Paragonah, Utah
Current Conditions -  °F | °C
As of 4:53 AM on Tuesday 27 Jan 2015 (Local Time) from KCDC Reporting Station
Overcast Overcast  
Wind Chill:   Ceiling: 5500
Heat Index:   Visibility: 10mi
Dew Point:   Wind: 12mph
Humidity: 86%   Direction: 210°SSW
Pressure: 30.23"   Gusts: NA
Location:  37.89°N, 112.78°W
Report Text: KCDC 271153Z AUTO 21010KT 10SM FEW046 BKN055 OVC070 04/02 A3023 RMK AO2 RAE1057B24E41 SLP211 P0000 60000 T00390017 10089 20006 50008
Loading
Personal Weather Stations






























Interactive Weather Map New forecast layout! Learn more

10-Day Weather Forecast

Advertisements
Track Severe Weather on mobile